Ana Sayfa
METAR-TAF:

METAR-TAF

Havaalanları :

Brooks County Airport

Falfurrias, Teksas, Amerika Birleşik Devletleri

Enlem: 27-12-24N, Boylam: 098-07-16W, yükseklik: 34 m

Güncel hava durumu gözlemi

Rapor saat 03:55 UTC de 27 dakika önce yapıldı.
Rüzgar güney/güneydoğudan 13 kt ve 20 kt'a kadar ani rüzgarlar
Sıcaklık 24°C
Nem 78%
Basınç 1007 hPa
Görüş mesafesi: 11.3 km
Açık gökyüzü

METAR: KBKS 160355Z AUTO 16013G20KT 7SM CLR 24/20 A2975 RMK AO1 T02400203

Saat: 22:22 (04:22 UTC)


TAF: eksik

4.000'den fazla havaalanı için hava durumu gözlemleri ve tahminleri (METAR ve TAF raporları).

Kullanılabilir istasyonlar harita üzerinde sarı ve kırmızı noktalarla gösterilir.

İstasyonun adını görmek için fareyi noktanın üzerinde gezdirin.

Sonrasında hava gözlem ve tahminlerini görmek için tıklayın.

Haritayı değiştirmek için: yaklaştırmak için siyah artı işaretli yeşil düğmeye ve uzaklaştırmak için de eksi işaretli düğmeye hızla tıklayın; bitişik haritalar için yeşil okları kullanın.


METAR-TAF: